Time;durP1;ratioP1;P1;durP2;ratioP2;P2;SDS_P1;SDS_P2;PMS_P1;PMS_P2;Temp;Humidity;BMP_temperature;BMP_pressure;BME280_temperature;BME280_humidity;BME280_pressure;Samples;Min_cycle;Max_cycle;Signal;HPM_P1;HPM_P2
2022/07/09 00:00:16;;;;;;;1.43;0.80;;;14.60;99.90;;;;;;5073452;28;20172;-67
2022/07/09 00:02:43;;;;;;;1.27;0.60;;;14.80;99.90;;;;;;5073235;28;20176;-66
2022/07/09 00:05:13;;;;;;;1.87;0.60;;;15.10;99.90;;;;;;5074209;28;20199;-66
2022/07/09 00:07:41;;;;;;;1.67;0.80;;;15.20;99.90;;;;;;5074117;28;20176;-67
2022/07/09 00:10:11;;;;;;;1.13;0.70;;;15.30;99.90;;;;;;5056007;28;20184;-66
2022/07/09 00:12:39;;;;;;;1.00;0.60;;;15.40;99.90;;;;;;5074205;28;20188;-67
2022/07/09 00:15:07;;;;;;;1.03;0.60;;;15.60;99.90;;;;;;5073968;28;20172;-66
2022/07/09 00:17:35;;;;;;;2.50;0.60;;;15.30;99.90;;;;;;5073835;28;20253;-67
2022/07/09 00:20:06;;;;;;;2.37;0.60;;;15.40;99.90;;;;;;5073707;28;20632;-66
2022/07/09 00:22:34;;;;;;;2.83;1.27;;;15.50;99.90;;;;;;5073773;28;20183;-66
2022/07/09 00:25:03;;;;;;;0.73;0.73;;;15.40;99.90;;;;;;5074121;28;20179;-67
2022/07/09 00:27:30;;;;;;;2.03;0.80;;;16.10;99.90;;;;;;5073443;28;20696;-67
2022/07/09 00:29:58;;;;;;;1.33;0.67;;;16.10;99.90;;;;;;5073639;28;20182;-67
2022/07/09 00:32:26;;;;;;;0.60;0.50;;;15.90;99.90;;;;;;5073716;28;20205;-67
2022/07/09 00:34:53;;;;;;;0.83;0.50;;;16.20;99.90;;;;;;5073445;28;20183;-67
2022/07/09 00:37:21;;;;;;;1.00;0.57;;;16.00;99.90;;;;;;5055277;28;20180;-67
2022/07/09 00:39:49;;;;;;;2.87;1.33;;;16.30;99.90;;;;;;5073494;28;20269;-67
2022/07/09 00:42:17;;;;;;;0.70;0.60;;;16.20;99.90;;;;;;5073432;28;20176;-67
2022/07/09 00:44:46;;;;;;;2.63;0.50;;;16.60;99.90;;;;;;5073601;28;20183;-67
2022/07/09 00:47:14;;;;;;;1.20;0.60;;;16.60;99.90;;;;;;5073380;28;20226;-68
2022/07/09 00:49:46;;;;;;;0.53;0.50;;;15.90;99.90;;;;;;5073230;28;20260;-67
2022/07/09 00:52:17;;;;;;;1.30;0.60;;;16.00;99.90;;;;;;5073298;28;20743;-66
2022/07/09 00:54:45;;;;;;;0.87;0.50;;;16.10;99.90;;;;;;5073388;28;20688;-67
2022/07/09 00:57:14;;;;;;;1.90;0.53;;;16.60;99.90;;;;;;5055202;28;20639;-67
2022/07/09 00:59:41;;;;;;;1.30;0.40;;;16.80;99.90;;;;;;5072964;28;20641;-67
2022/07/09 01:02:10;;;;;;;2.33;0.70;;;16.90;99.90;;;;;;5072260;28;20171;-66
2022/07/09 01:04:39;;;;;;;0.97;0.40;;;17.10;99.90;;;;;;5073410;28;20171;-66
2022/07/09 01:07:08;;;;;;;0.60;0.40;;;17.20;99.90;;;;;;5073283;28;20180;-67
2022/07/09 01:09:36;;;;;;;0.53;0.40;;;17.00;99.90;;;;;;5072992;28;20172;-67
2022/07/09 01:12:04;;;;;;;1.13;0.83;;;17.00;99.90;;;;;;5072981;28;20212;-67
2022/07/09 01:14:31;;;;;;;0.80;0.60;;;17.00;99.90;;;;;;5073175;28;20221;-67
2022/07/09 01:17:02;;;;;;;0.40;0.40;;;17.40;99.90;;;;;;5072941;28;20672;-67
2022/07/09 01:19:31;;;;;;;1.37;0.60;;;17.50;99.90;;;;;;5073081;28;20217;-68
2022/07/09 01:21:59;;;;;;;0.90;0.60;;;17.50;99.90;;;;;;5073107;28;20191;-67
2022/07/09 01:24:27;;;;;;;1.20;1.00;;;17.70;99.90;;;;;;5073081;28;20176;-68
2022/07/09 01:26:55;;;;;;;3.87;3.00;;;17.90;99.90;;;;;;5072905;28;20662;-67
2022/07/09 01:29:23;;;;;;;2.47;0.60;;;17.50;99.90;;;;;;5072777;28;20265;-67
2022/07/09 01:31:51;;;;;;;1.47;0.50;;;17.90;99.90;;;;;;5072933;28;20241;-66
2022/07/09 01:34:19;;;;;;;0.60;0.53;;;17.70;99.90;;;;;;5073058;28;20172;-66
2022/07/09 01:36:46;;;;;;;1.90;0.60;;;17.60;99.90;;;;;;5072793;28;20658;-66
2022/07/09 01:39:14;;;;;;;0.80;0.53;;;18.00;99.90;;;;;;5072639;28;20171;-67
2022/07/09 01:41:42;;;;;;;0.73;0.40;;;17.40;99.90;;;;;;5072783;28;20672;-67
2022/07/09 01:44:10;;;;;;;0.93;0.50;;;17.40;99.90;;;;;;5072785;28;20188;-67
2022/07/09 01:46:37;;;;;;;0.50;0.50;;;17.70;99.90;;;;;;5072979;28;20183;-67
2022/07/09 01:49:05;;;;;;;0.40;0.40;;;17.40;99.90;;;;;;5054851;28;20634;-67
2022/07/09 01:51:37;;;;;;;2.27;0.90;;;17.90;99.90;;;;;;5072878;28;20204;-67
2022/07/09 01:54:04;;;;;;;3.93;1.57;;;17.70;99.90;;;;;;5072920;28;20267;-67
2022/07/09 01:56:33;;;;;;;0.37;0.30;;;18.10;99.90;;;;;;5072458;28;20180;-65
2022/07/09 01:59:01;;;;;;;6.90;2.07;;;18.30;99.90;;;;;;5089776;28;20241;-65
2022/07/09 02:01:29;;;;;;;5.47;1.67;;;18.50;99.90;;;;;;5090842;28;20190;-66
2022/07/09 02:03:56;;;;;;;2.00;0.63;;;18.70;99.90;;;;;;5086098;28;20671;-65
2022/07/09 02:06:24;;;;;;;2.37;0.50;;;18.60;99.90;;;;;;5089046;28;20178;-65
2022/07/09 02:08:52;;;;;;;1.13;0.60;;;18.60;99.90;;;;;;5092057;28;20183;-65
2022/07/09 02:11:20;;;;;;;0.77;0.57;;;17.80;99.90;;;;;;5092193;28;20211;-66
2022/07/09 02:13:48;;;;;;;0.40;0.40;;;18.50;99.90;;;;;;5095756;28;20221;-66
2022/07/09 02:16:15;;;;;;;0.57;0.40;;;18.70;99.90;;;;;;5096058;28;20215;-66
2022/07/09 02:18:44;;;;;;;1.13;0.43;;;19.10;99.90;;;;;;5077704;28;20228;-66
2022/07/09 02:21:12;;;;;;;1.03;0.50;;;18.40;99.90;;;;;;5096400;28;20177;-66
2022/07/09 02:23:39;;;;;;;0.40;0.40;;;18.60;99.90;;;;;;5095731;28;20188;-66
2022/07/09 02:26:07;;;;;;;2.63;0.50;;;18.90;99.90;;;;;;5095915;28;20250;-66
2022/07/09 02:28:35;;;;;;;0.40;0.40;;;18.80;99.90;;;;;;5093991;28;20532;-66
2022/07/09 02:31:02;;;;;;;0.30;0.30;;;19.40;99.90;;;;;;5081028;28;20205;-67
2022/07/09 02:33:31;;;;;;;1.23;0.50;;;19.40;99.90;;;;;;5096096;28;20257;-66
2022/07/09 02:35:59;;;;;;;1.43;0.50;;;18.80;99.90;;;;;;5095734;28;20180;-67
2022/07/09 02:38:27;;;;;;;1.20;0.40;;;18.60;99.90;;;;;;5095490;28;20186;-65
2022/07/09 02:40:54;;;;;;;0.60;0.60;;;18.80;99.90;;;;;;5096005;28;20181;-65
2022/07/09 02:43:22;;;;;;;2.07;0.60;;;18.50;99.90;;;;;;5095791;28;20184;-66
2022/07/09 02:45:51;;;;;;;2.00;0.60;;;18.50;99.90;;;;;;5095938;28;20196;-65
2022/07/09 02:48:18;;;;;;;0.63;0.50;;;18.90;99.90;;;;;;5095484;28;20189;-67
2022/07/09 02:50:46;;;;;;;0.80;0.70;;;18.80;99.90;;;;;;5095472;28;20264;-66
2022/07/09 02:53:14;;;;;;;1.10;0.80;;;18.70;99.90;;;;;;5095610;28;20640;-66
2022/07/09 02:55:41;;;;;;;0.80;0.67;;;18.70;99.90;;;;;;5095549;28;20265;-65
2022/07/09 02:58:10;;;;;;;0.90;0.60;;;18.60;99.90;;;;;;5094796;28;20667;-65
2022/07/09 03:00:42;;;;;;;0.97;0.50;;;18.90;99.90;;;;;;5095204;28;20224;-65
2022/07/09 03:03:10;;;;;;;1.23;0.60;;;19.30;99.90;;;;;;5077354;28;20223;-65
2022/07/09 03:05:38;;;;;;;1.43;0.50;;;19.10;99.90;;;;;;5070853;28;20722;-65
2022/07/09 03:08:08;;;;;;;1.53;0.60;;;18.70;99.90;;;;;;5076160;28;20171;-64
2022/07/09 03:10:36;;;;;;;0.43;0.40;;;18.60;99.90;;;;;;5095132;28;20203;-66
2022/07/09 03:13:04;;;;;;;0.77;0.50;;;18.80;99.90;;;;;;5091598;28;20555;-63
2022/07/09 03:15:31;;;;;;;1.03;0.40;;;18.90;99.90;;;;;;5083832;28;20187;-67
2022/07/09 03:17:59;;;;;;;1.23;0.53;;;19.20;99.90;;;;;;5074871;28;20183;-67
2022/07/09 03:20:27;;;;;;;0.77;0.60;;;18.90;99.90;;;;;;5074962;28;20178;-67
2022/07/09 03:22:54;;;;;;;1.17;0.50;;;19.10;99.90;;;;;;5074861;28;20214;-68
2022/07/09 03:25:22;;;;;;;1.20;0.70;;;19.30;99.90;;;;;;5074103;28;20179;-66
2022/07/09 03:27:50;;;;;;;3.33;0.63;;;19.20;99.90;;;;;;5074408;28;20232;-66
2022/07/09 03:30:18;;;;;;;1.17;0.60;;;18.80;99.90;;;;;;5074673;28;20177;-68
2022/07/09 03:32:46;;;;;;;1.40;0.63;;;18.70;99.90;;;;;;5074578;28;20223;-67
2022/07/09 03:35:14;;;;;;;2.30;0.90;;;18.70;99.90;;;;;;5074474;28;20654;-66
2022/07/09 03:37:42;;;;;;;0.83;0.60;;;19.40;99.90;;;;;;5074406;28;20180;-67
2022/07/09 03:40:10;;;;;;;1.87;0.70;;;18.90;99.90;;;;;;5074585;28;20215;-67
2022/07/09 03:42:38;;;;;;;1.53;0.60;;;19.30;99.90;;;;;;5074520;28;20329;-67
2022/07/09 03:45:09;;;;;;;0.60;0.60;;;19.70;98.30;;;;;;5074336;28;20187;-67
2022/07/09 03:47:36;;;;;;;0.73;0.60;;;19.80;99.90;;;;;;5074350;28;20268;-67
2022/07/09 03:50:05;;;;;;;0.60;0.50;;;20.20;99.90;;;;;;5074352;28;20184;-67
2022/07/09 03:52:33;;;;;;;0.73;0.53;;;19.30;98.80;;;;;;5074294;28;20585;-67
2022/07/09 03:55:00;;;;;;;1.10;0.60;;;19.60;99.90;;;;;;5072915;28;20545;-67
2022/07/09 03:57:28;;;;;;;1.17;0.70;;;20.10;97.00;;;;;;5073834;28;20192;-67
2022/07/09 03:59:56;;;;;;;1.07;0.67;;;19.70;98.80;;;;;;5073949;28;20651;-67
2022/07/09 04:02:23;;;;;;;0.87;0.50;;;19.60;98.00;;;;;;5073933;28;20259;-67
2022/07/09 04:04:51;;;;;;;1.70;0.50;;;19.70;98.30;;;;;;5073911;28;20177;-67
2022/07/09 04:07:19;;;;;;;1.70;0.70;;;19.30;98.80;;;;;;5073594;28;20228;-67
2022/07/09 04:09:47;;;;;;;1.23;0.50;;;18.60;99.90;;;;;;5073888;28;20536;-67
2022/07/09 04:12:14;;;;;;;1.00;0.43;;;18.60;99.90;;;;;;5073668;28;20211;-67
2022/07/09 04:14:42;;;;;;;1.23;0.60;;;19.10;99.90;;;;;;5073934;28;20626;-67
2022/07/09 04:17:10;;;;;;;1.23;0.70;;;19.10;99.90;;;;;;5073465;28;20630;-67
2022/07/09 04:19:37;;;;;;;0.50;0.50;;;19.50;99.90;;;;;;5072271;28;20629;-67
2022/07/09 04:22:05;;;;;;;1.20;0.60;;;19.80;99.90;;;;;;5073434;28;20173;-67
2022/07/09 04:24:33;;;;;;;0.60;0.40;;;19.60;99.90;;;;;;5073480;28;20189;-67
2022/07/09 04:27:01;;;;;;;0.47;0.37;;;19.70;99.90;;;;;;5073266;28;20289;-67
2022/07/09 04:29:29;;;;;;;0.60;0.60;;;19.60;98.90;;;;;;5073652;28;20176;-67
2022/07/09 04:31:56;;;;;;;0.70;0.50;;;19.90;99.90;;;;;;5073719;28;20290;-67
2022/07/09 04:34:24;;;;;;;1.17;0.50;;;20.00;97.20;;;;;;5073287;28;20670;-66
2022/07/09 04:36:52;;;;;;;0.37;0.33;;;19.70;99.10;;;;;;5073412;28;20633;-64
2022/07/09 04:39:19;;;;;;;0.60;0.50;;;19.40;99.90;;;;;;5081522;28;20183;-66
2022/07/09 04:41:47;;;;;;;0.50;0.40;;;19.30;99.90;;;;;;5082339;28;20191;-66
2022/07/09 04:44:15;;;;;;;0.90;0.50;;;19.30;99.90;;;;;;5092492;28;20176;-65
2022/07/09 04:46:44;;;;;;;0.70;0.50;;;18.90;99.90;;;;;;5091897;28;20199;-65
2022/07/09 04:49:12;;;;;;;0.90;0.50;;;19.00;99.90;;;;;;5081589;28;20171;-66
2022/07/09 04:51:39;;;;;;;1.00;0.50;;;19.10;99.90;;;;;;5093206;28;20258;-65
2022/07/09 04:54:07;;;;;;;1.23;0.60;;;19.30;99.90;;;;;;5093589;28;20264;-66
2022/07/09 04:56:35;;;;;;;0.60;0.60;;;19.00;99.90;;;;;;5092844;28;20187;-66
2022/07/09 04:59:03;;;;;;;1.90;0.67;;;18.60;99.90;;;;;;5093384;28;20179;-65
2022/07/09 05:01:31;;;;;;;0.70;0.50;;;18.70;99.90;;;;;;5092897;28;20282;-65
2022/07/09 05:03:59;;;;;;;0.60;0.60;;;18.60;99.90;;;;;;5093179;28;20314;-66
2022/07/09 05:06:27;;;;;;;0.53;0.40;;;18.80;99.90;;;;;;5077951;28;20539;-66
2022/07/09 05:08:55;;;;;;;1.87;0.50;;;18.70;99.90;;;;;;5073378;28;20193;-66
2022/07/09 05:11:22;;;;;;;0.70;0.60;;;19.00;99.90;;;;;;5054797;28;20204;-66
2022/07/09 05:13:50;;;;;;;1.97;0.50;;;19.00;99.90;;;;;;5073111;28;20180;-67
2022/07/09 05:16:18;;;;;;;2.30;0.60;;;19.00;99.90;;;;;;5073108;28;20233;-66
2022/07/09 05:18:46;;;;;;;0.57;0.50;;;19.10;99.90;;;;;;5072957;28;20183;-65
2022/07/09 05:21:13;;;;;;;1.80;0.67;;;18.60;99.90;;;;;;5086762;28;20613;-67
2022/07/09 05:23:41;;;;;;;1.63;0.77;;;18.70;99.90;;;;;;5093070;28;20261;-67
2022/07/09 05:26:09;;;;;;;0.90;0.70;;;18.60;99.90;;;;;;5093083;28;20183;-66
2022/07/09 05:28:38;;;;;;;2.30;0.67;;;18.50;99.90;;;;;;5092768;28;20200;-67
2022/07/09 05:31:06;;;;;;;1.83;0.87;;;18.20;99.90;;;;;;5092965;28;20310;-66
2022/07/09 05:33:33;;;;;;;5.00;0.80;;;17.80;99.90;;;;;;5092984;28;20183;-66
2022/07/09 05:36:01;;;;;;;2.33;0.53;;;17.70;99.90;;;;;;5092838;28;20244;-67
2022/07/09 05:38:29;;;;;;;2.63;0.60;;;17.50;99.90;;;;;;5088378;28;20183;-68
2022/07/09 05:41:00;;;;;;;1.70;0.73;;;17.40;99.90;;;;;;5090756;28;20233;-68
2022/07/09 05:43:28;;;;;;;2.00;0.90;;;17.30;99.90;;;;;;5075541;28;20192;-65
2022/07/09 05:45:59;;;;;;;0.77;0.70;;;17.10;99.90;;;;;;5092607;28;20190;-66
2022/07/09 05:48:27;;;;;;;0.90;0.70;;;16.90;99.90;;;;;;5095480;28;20183;-66
2022/07/09 05:50:57;;;;;;;1.00;0.40;;;16.80;99.90;;;;;;5096957;28;20203;-67
2022/07/09 05:53:25;;;;;;;0.70;0.60;;;16.90;99.90;;;;;;5096667;28;20269;-66
2022/07/09 05:55:53;;;;;;;0.87;0.57;;;16.70;99.90;;;;;;5096622;28;20692;-66
2022/07/09 05:58:20;;;;;;;1.73;0.80;;;16.70;99.90;;;;;;5096455;28;20228;-66
2022/07/09 06:00:48;;;;;;;1.03;0.60;;;16.70;99.90;;;;;;5096459;28;20210;-67
2022/07/09 06:03:16;;;;;;;0.80;0.67;;;16.70;99.90;;;;;;5097077;28;20175;-67
2022/07/09 06:05:43;;;;;;;1.53;0.70;;;16.70;99.90;;;;;;5096855;28;20175;-67
2022/07/09 06:08:12;;;;;;;0.77;0.60;;;16.60;99.90;;;;;;5096383;28;20551;-67
2022/07/09 06:10:39;;;;;;;0.87;0.60;;;16.50;99.90;;;;;;5096084;28;20389;-67
2022/07/09 06:13:07;;;;;;;2.67;0.83;;;16.40;99.90;;;;;;5096610;28;20175;-66
2022/07/09 06:15:35;;;;;;;1.00;0.93;;;16.40;99.90;;;;;;5096857;28;20644;-66
2022/07/09 06:18:03;;;;;;;2.23;1.17;;;16.30;99.90;;;;;;5093221;28;20236;-66
2022/07/09 06:20:31;;;;;;;1.07;0.70;;;16.30;99.90;;;;;;5083823;28;20283;-66
2022/07/09 06:22:58;;;;;;;0.70;0.60;;;16.10;99.90;;;;;;5096354;28;20240;-65
2022/07/09 06:25:26;;;;;;;1.87;0.70;;;16.10;99.90;;;;;;5096171;28;20182;-67
2022/07/09 06:27:54;;;;;;;0.93;0.63;;;16.00;99.90;;;;;;5096055;28;20696;-65
2022/07/09 06:30:22;;;;;;;1.53;0.80;;;16.00;99.90;;;;;;5096054;28;20176;-67
2022/07/09 06:32:50;;;;;;;1.63;0.80;;;16.00;99.90;;;;;;5092671;28;20301;-66
2022/07/09 06:35:18;;;;;;;1.83;1.13;;;15.90;99.90;;;;;;5072382;28;20183;-65
2022/07/09 06:37:46;;;;;;;1.53;0.70;;;15.90;99.90;;;;;;5074889;28;20184;-67
2022/07/09 06:40:14;;;;;;;3.37;1.00;;;15.90;99.90;;;;;;5057118;28;20245;-65
2022/07/09 06:42:42;;;;;;;3.83;1.90;;;15.80;99.90;;;;;;5075627;28;20180;-65
2022/07/09 06:45:10;;;;;;;2.17;1.50;;;15.70;99.90;;;;;;5075578;28;20184;-65
2022/07/09 06:47:37;;;;;;;1.93;1.20;;;15.70;99.90;;;;;;5075469;28;20206;-65
2022/07/09 06:50:05;;;;;;;1.63;0.90;;;15.50;99.90;;;;;;5075456;28;20182;-65
2022/07/09 06:52:33;;;;;;;0.73;0.67;;;15.40;99.90;;;;;;5075505;28;20222;-65
2022/07/09 06:55:01;;;;;;;1.50;1.07;;;15.30;99.90;;;;;;5075728;28;20176;-66
2022/07/09 06:57:30;;;;;;;4.53;1.50;;;15.30;99.90;;;;;;5074956;28;20245;-65
2022/07/09 06:59:58;;;;;;;3.70;2.70;;;15.20;99.90;;;;;;5075360;28;20176;-65
2022/07/09 07:02:26;;;;;;;2.20;1.50;;;15.10;99.90;;;;;;5075496;28;20183;-65
2022/07/09 07:04:53;;;;;;;2.80;1.63;;;14.90;99.90;;;;;;5077627;28;20642;-65
2022/07/09 07:07:21;;;;;;;2.27;1.70;;;14.80;99.90;;;;;;5072548;28;20625;-65
2022/07/09 07:09:49;;;;;;;5.57;3.27;;;14.80;99.90;;;;;;5087080;28;20190;-65
2022/07/09 07:12:17;;;;;;;6.53;3.40;;;14.70;99.90;;;;;;5073334;28;20260;-66
2022/07/09 07:14:44;;;;;;;6.27;3.20;;;14.50;99.90;;;;;;5073932;28;20237;-66
2022/07/09 07:17:12;;;;;;;1.47;1.20;;;14.40;99.90;;;;;;5073511;28;20194;-66
2022/07/09 07:19:40;;;;;;;2.27;1.33;;;14.30;99.90;;;;;;5083223;28;20555;-66
2022/07/09 07:22:08;;;;;;;2.00;1.50;;;14.30;99.90;;;;;;5064706;28;20533;-66
2022/07/09 07:24:36;;;;;;;1.97;1.37;;;14.20;99.90;;;;;;5069661;28;20184;-66
2022/07/09 07:27:04;;;;;;;1.60;1.10;;;14.10;99.90;;;;;;5093445;28;20229;-66
2022/07/09 07:29:31;;;;;;;1.73;1.40;;;14.00;99.90;;;;;;5093370;28;20551;-66
2022/07/09 07:31:59;;;;;;;1.50;1.30;;;13.90;99.90;;;;;;5093774;28;20218;-66
2022/07/09 07:34:27;;;;;;;1.90;1.30;;;13.80;99.90;;;;;;5093834;28;20546;-66
2022/07/09 07:36:55;;;;;;;2.63;1.97;;;13.60;99.90;;;;;;5093525;28;20179;-66
2022/07/09 07:39:24;;;;;;;2.83;1.70;;;13.60;99.90;;;;;;5092691;28;20167;-66
2022/07/09 07:41:52;;;;;;;2.40;1.53;;;13.60;99.90;;;;;;5075082;28;20190;-66
2022/07/09 07:44:20;;;;;;;2.67;1.80;;;13.50;99.90;;;;;;5093192;28;20209;-66
2022/07/09 07:46:48;;;;;;;3.37;1.57;;;13.30;99.90;;;;;;5093278;28;20551;-66
2022/07/09 07:49:16;;;;;;;3.60;1.50;;;13.20;99.90;;;;;;5093120;28;20178;-66
2022/07/09 07:51:43;;;;;;;2.97;1.70;;;12.90;99.90;;;;;;5093165;28;20292;-67
2022/07/09 07:54:11;;;;;;;2.53;1.60;;;12.60;99.90;;;;;;5092863;28;20638;-66
2022/07/09 07:56:39;;;;;;;4.37;1.57;;;12.40;99.90;;;;;;5092905;28;20182;-67
2022/07/09 07:59:07;;;;;;;2.57;1.77;;;12.20;99.90;;;;;;5092927;28;20209;-66
2022/07/09 08:01:35;;;;;;;1.93;1.60;;;12.00;99.90;;;;;;5074701;28;20255;-66
2022/07/09 08:04:03;;;;;;;2.33;1.63;;;11.90;99.90;;;;;;5092764;28;20193;-66
2022/07/09 08:06:31;;;;;;;2.93;1.53;;;11.70;99.90;;;;;;5071915;28;20618;-66
2022/07/09 08:08:58;;;;;;;2.87;1.63;;;11.60;99.90;;;;;;5086910;28;20190;-65
2022/07/09 08:11:26;;;;;;;1.50;1.40;;;11.50;99.90;;;;;;5092395;28;20217;-65
2022/07/09 08:13:54;;;;;;;3.60;2.30;;;11.40;99.90;;;;;;5093088;28;20233;-65
2022/07/09 08:16:22;;;;;;;4.23;2.10;;;11.30;99.90;;;;;;5092940;28;20265;-65
2022/07/09 08:18:49;;;;;;;3.07;1.73;;;11.20;99.90;;;;;;5084156;28;20228;-65
2022/07/09 08:21:17;;;;;;;4.17;2.40;;;11.10;99.90;;;;;;5072745;28;20186;-65
2022/07/09 08:23:54;;;;;;;5.07;2.80;;;11.00;99.90;;;;;;5072349;28;20205;-65
2022/07/09 08:26:23;;;;;;;3.87;2.20;;;11.00;99.90;;;;;;5072088;28;20182;-64
2022/07/09 08:28:51;;;;;;;2.27;1.70;;;10.90;99.90;;;;;;5054424;28;20191;-65
2022/07/09 08:31:20;;;;;;;3.13;2.40;;;10.90;99.90;;;;;;5072477;28;20319;-64
2022/07/09 08:33:48;;;;;;;4.50;1.90;;;10.80;99.90;;;;;;5072340;28;20683;-65
2022/07/09 08:36:16;;;;;;;5.33;2.87;;;10.90;99.90;;;;;;5072343;28;20201;-64
2022/07/09 08:38:46;;;;;;;4.60;2.80;;;11.00;99.90;;;;;;5079254;28;20641;-67
2022/07/09 08:41:16;;;;;;;4.07;2.90;;;11.00;99.90;;;;;;5094683;28;20248;-67
2022/07/09 08:43:44;;;;;;;7.07;5.30;;;11.10;99.90;;;;;;5084032;28;20238;-67
2022/07/09 08:46:12;;;;;;;10.80;7.17;;;11.10;99.90;;;;;;5092099;28;20183;-66
2022/07/09 08:48:42;;;;;;;12.13;8.30;;;11.10;99.90;;;;;;5092340;28;20620;-66
2022/07/09 08:51:10;;;;;;;14.07;8.80;;;11.10;99.90;;;;;;5091305;28;20273;-66
2022/07/09 08:53:45;;;;;;;15.60;9.43;;;11.10;99.90;;;;;;5092424;28;20185;-65
2022/07/09 08:56:13;;;;;;;13.30;7.20;;;11.00;99.90;;;;;;5091444;28;20189;-65
2022/07/09 08:58:41;;;;;;;11.77;7.43;;;10.90;99.90;;;;;;5091387;28;20183;-65
2022/07/09 09:01:14;;;;;;;10.93;7.60;;;10.80;99.90;;;;;;5092157;28;20179;-65
2022/07/09 09:03:45;;;;;;;11.87;7.77;;;10.70;99.90;;;;;;5092337;28;20216;-65
2022/07/09 09:06:13;;;;;;;10.80;7.97;;;10.60;99.90;;;;;;5092763;28;20191;-66
2022/07/09 09:08:43;;;;;;;13.97;8.17;;;10.50;99.90;;;;;;5092541;28;20609;-65
2022/07/09 09:11:22;;;;;;;11.17;7.87;;;10.40;99.90;;;;;;5091389;28;20345;-65
2022/07/09 09:13:51;;;;;;;11.07;7.60;;;10.30;99.90;;;;;;5091572;28;20184;-65
2022/07/09 09:16:21;;;;;;;15.07;11.00;;;10.20;99.90;;;;;;5091709;28;20192;-64
2022/07/09 09:18:51;;;;;;;18.20;12.20;;;10.10;99.90;;;;;;5091567;28;20244;-65
2022/07/09 09:21:26;;;;;;;24.37;13.63;;;10.20;99.90;;;;;;5091986;28;20191;-65
2022/07/09 09:23:59;;;;;;;24.60;17.17;;;10.30;99.90;;;;;;5096017;28;20182;-67
2022/07/09 09:26:28;;;;;;;20.50;13.07;;;10.40;99.90;;;;;;5077851;28;20248;-65
2022/07/09 09:29:01;;;;;;;12.93;9.30;;;10.50;99.90;;;;;;5096340;28;20186;-66
2022/07/09 09:31:34;;;;;;;10.80;7.97;;;10.70;99.90;;;;;;5095376;28;20224;-65
2022/07/09 09:34:11;;;;;;;10.13;6.83;;;10.80;99.90;;;;;;5095965;28;20187;-65
2022/07/09 09:36:41;;;;;;;10.37;5.77;;;11.00;99.90;;;;;;5095530;28;20183;-68
2022/07/09 09:39:16;;;;;;;7.90;5.33;;;11.10;99.90;;;;;;5096191;28;20533;-67
2022/07/09 09:41:48;;;;;;;9.40;5.10;;;11.20;99.90;;;;;;5096235;28;20179;-65
2022/07/09 09:44:37;;;;;;;10.57;5.90;;;11.20;99.90;;;;;;5056073;28;20177;-66
2022/07/09 09:47:07;;;;;;;6.60;4.37;;;11.30;99.90;;;;;;5090337;28;20187;-66
2022/07/09 09:49:38;;;;;;;7.00;4.83;;;11.30;99.90;;;;;;5095958;28;20180;-66
2022/07/09 09:52:10;;;;;;;7.43;4.00;;;11.30;99.90;;;;;;5096153;28;20214;-66
2022/07/09 09:54:43;;;;;;;5.20;3.70;;;11.30;99.90;;;;;;5095729;28;20225;-66
2022/07/09 09:57:16;;;;;;;3.60;2.97;;;11.30;99.90;;;;;;5095910;28;20261;-66
2022/07/09 09:59:50;;;;;;;5.07;3.33;;;11.20;99.90;;;;;;5089038;28;20194;-65
2022/07/09 10:02:19;;;;;;;4.57;3.40;;;11.20;99.90;;;;;;5074514;28;20611;-65
2022/07/09 10:04:47;;;;;;;4.70;2.77;;;11.20;99.90;;;;;;5095622;28;20191;-66
2022/07/09 10:07:16;;;;;;;4.43;2.50;;;11.20;99.90;;;;;;5095525;28;20188;-65
2022/07/09 10:09:58;;;;;;;3.30;2.47;;;11.20;99.90;;;;;;5095326;28;20182;-65
2022/07/09 10:12:37;;;;;;;2.73;1.90;;;11.10;99.90;;;;;;5055257;28;20634;-65
2022/07/09 10:15:26;;;;;;;6.57;2.83;;;11.00;99.90;;;;;;5075949;28;20711;-64
2022/07/09 10:17:54;;;;;;;5.07;2.40;;;10.90;99.90;;;;;;5072697;28;20178;-64
2022/07/09 10:20:33;;;;;;;4.27;2.93;;;11.00;99.90;;;;;;5074727;28;20231;-65
2022/07/09 10:23:03;;;;;;;6.87;3.37;;;10.90;99.90;;;;;;5075092;28;20180;-64
2022/07/09 10:25:42;;;;;;;3.70;2.87;;;10.90;99.90;;;;;;5075767;28;20272;-66
2022/07/09 10:28:16;;;;;;;7.23;2.83;;;10.70;99.90;;;;;;5079477;28;20219;-65
2022/07/09 10:30:45;;;;;;;6.87;4.50;;;10.70;99.90;;;;;;5095489;28;20262;-66
2022/07/09 10:33:51;;;;;;;8.23;4.20;;;10.70;99.90;;;;;;5071185;28;20188;-65
2022/07/09 10:36:20;;;;;;;3.40;2.70;;;10.60;99.90;;;;;;5036082;28;20204;-65
2022/07/09 10:38:57;;;;;;;6.80;2.67;;;10.60;99.90;;;;;;5074999;28;20192;-65
2022/07/09 10:41:25;;;;;;;4.07;2.63;;;10.60;99.90;;;;;;5056959;28;20243;-66
2022/07/09 10:43:54;;;;;;;3.53;2.40;;;10.60;99.90;;;;;;5074996;28;20210;-65
2022/07/09 10:46:22;;;;;;;7.07;3.50;;;10.60;99.90;;;;;;5088859;28;20318;-64
2022/07/09 10:48:49;;;;;;;7.93;2.80;;;10.60;99.90;;;;;;5094965;28;20663;-65
2022/07/09 10:51:22;;;;;;;4.77;3.13;;;10.60;99.90;;;;;;5095056;28;20566;-65
2022/07/09 10:53:50;;;;;;;4.03;3.47;;;10.50;99.90;;;;;;5093263;28;20187;-65
2022/07/09 10:56:22;;;;;;;8.07;3.80;;;10.40;99.90;;;;;;5062395;28;20188;-64
2022/07/09 10:58:51;;;;;;;4.60;3.30;;;10.40;99.90;;;;;;5095151;28;20753;-65
2022/07/09 11:01:24;;;;;;;7.23;2.90;;;10.30;99.90;;;;;;5094947;28;20184;-65
2022/07/09 11:03:53;;;;;;;3.30;2.43;;;10.40;99.90;;;;;;5100058;28;20188;-65
2022/07/09 11:06:21;;;;;;;4.93;2.50;;;10.30;99.90;;;;;;5104174;28;20193;-65
2022/07/09 11:08:49;;;;;;;3.77;2.37;;;10.30;99.90;;;;;;5098846;28;20171;-66
2022/07/09 11:11:24;;;;;;;3.57;2.40;;;10.30;99.90;;;;;;5076655;28;20221;-64
2022/07/09 11:13:55;;;;;;;3.23;2.40;;;10.30;99.90;;;;;;5085581;28;20172;-65
2022/07/09 11:16:27;;;;;;;4.10;2.60;;;10.20;99.90;;;;;;5078138;28;20200;-65
2022/07/09 11:18:55;;;;;;;2.70;2.40;;;10.20;99.90;;;;;;5093647;28;20244;-65
2022/07/09 11:21:27;;;;;;;2.70;2.17;;;10.20;99.90;;;;;;5081877;28;20249;-65
2022/07/09 11:23:55;;;;;;;3.53;2.43;;;10.20;99.90;;;;;;5073884;28;20184;-64
2022/07/09 11:26:22;;;;;;;4.33;2.37;;;10.20;99.90;;;;;;5073418;28;20192;-65
2022/07/09 11:28:51;;;;;;;6.30;3.47;;;10.30;99.90;;;;;;5072215;28;20298;-65
2022/07/09 11:31:22;;;;;;;7.63;3.57;;;10.30;99.90;;;;;;5073812;28;20203;-65
2022/07/09 11:36:41;;;;;;;11.37;5.13;;;10.30;99.90;;;;;;5091630;28;20183;-65
2022/07/09 11:39:09;;;;;;;9.27;5.00;;;10.30;99.90;;;;;;5071066;28;20183;-65
2022/07/09 11:41:46;;;;;;;7.83;3.50;;;10.30;99.90;;;;;;5073656;28;20184;-66
2022/07/09 11:44:24;;;;;;;4.97;2.83;;;10.30;99.90;;;;;;5067290;28;20223;-66
2022/07/09 11:47:06;;;;;;;4.07;2.50;;;10.20;99.90;;;;;;5093627;28;20193;-66
2022/07/09 11:49:40;;;;;;;4.27;2.27;;;10.20;99.90;;;;;;5093471;28;20267;-66
2022/07/09 11:52:25;;;;;;;3.07;1.80;;;10.20;99.90;;;;;;5075313;28;20233;-66
2022/07/09 11:55:01;;;;;;;2.23;1.63;;;10.20;99.90;;;;;;5093915;28;20202;-65
2022/07/09 11:57:34;;;;;;;2.00;1.60;;;10.20;99.90;;;;;;5093719;28;20543;-66
2022/07/09 12:00:06;;;;;;;1.60;1.50;;;10.20;99.90;;;;;;5093406;28;20728;-65
2022/07/09 12:02:37;;;;;;;3.40;1.80;;;10.20;99.90;;;;;;5093639;28;20207;-67
2022/07/09 12:05:07;;;;;;;5.27;1.80;;;10.20;99.90;;;;;;5093405;28;20181;-64
2022/07/09 12:07:35;;;;;;;6.07;3.07;;;10.30;99.90;;;;;;5093370;28;20183;-65
2022/07/09 12:10:08;;;;;;;3.63;2.70;;;10.20;99.90;;;;;;5092858;28;20276;-65
2022/07/09 12:12:37;;;;;;;3.40;2.20;;;10.20;99.90;;;;;;5093054;28;20681;-64
2022/07/09 12:15:06;;;;;;;2.63;1.70;;;10.20;99.90;;;;;;5093274;28;20648;-65
2022/07/09 12:17:33;;;;;;;3.37;1.67;;;10.20;99.90;;;;;;5074803;28;20183;-64
2022/07/09 12:20:06;;;;;;;3.10;1.93;;;10.20;99.90;;;;;;5080391;28;20172;-65
2022/07/09 12:22:33;;;;;;;7.03;1.80;;;10.20;99.90;;;;;;5072743;28;20185;-64
2022/07/09 12:25:01;;;;;;;2.90;1.97;;;10.20;99.90;;;;;;5088652;28;20171;-65
2022/07/09 12:27:28;;;;;;;3.23;1.80;;;10.10;99.90;;;;;;5052683;28;20309;-66
2022/07/09 12:29:56;;;;;;;1.93;1.30;;;10.10;99.90;;;;;;5070931;28;20262;-65
2022/07/09 12:32:23;;;;;;;2.30;1.40;;;10.30;99.90;;;;;;5092753;28;20221;-65
2022/07/09 12:34:50;;;;;;;1.73;1.07;;;10.40;99.90;;;;;;5092959;28;20185;-64
2022/07/09 12:37:21;;;;;;;4.33;1.30;;;10.40;99.90;;;;;;5092704;28;20214;-65
2022/07/09 12:39:49;;;;;;;2.57;0.90;;;10.50;99.90;;;;;;5092285;28;20190;-64
2022/07/09 12:42:17;;;;;;;1.77;1.30;;;10.50;99.90;;;;;;5092932;28;20179;-64
2022/07/09 12:44:45;;;;;;;1.93;1.00;;;10.50;99.90;;;;;;5092881;28;20262;-65
2022/07/09 12:47:12;;;;;;;1.63;1.17;;;10.50;99.90;;;;;;5092956;28;20180;-65
2022/07/09 12:49:39;;;;;;;2.13;1.40;;;10.60;99.90;;;;;;5092328;28;20596;-64
2022/07/09 12:52:07;;;;;;;2.17;1.47;;;10.50;99.90;;;;;;5092634;28;20260;-64
2022/07/09 12:54:34;;;;;;;2.03;1.50;;;10.40;99.90;;;;;;5092578;28;20223;-64
2022/07/09 12:57:02;;;;;;;3.37;1.10;;;10.30;99.90;;;;;;5092216;28;20654;-64